createdAt,value
2023-04-26T00:03:11.760Z,2.90
2023-04-26T00:05:21.675Z,5.82
2023-04-26T00:08:21.401Z,4.85
2023-04-26T00:10:51.196Z,6.97
2023-04-26T00:14:16.899Z,5.70
2023-04-26T00:17:32.637Z,4.78
2023-04-26T00:20:00.265Z,3.47
2023-04-26T00:25:32.840Z,6.13
2023-04-26T00:28:28.190Z,4.95
2023-04-26T00:31:25.333Z,4.53
2023-04-26T00:34:15.362Z,5.32
2023-04-26T00:37:10.941Z,6.10
2023-04-26T00:42:28.968Z,4.40
2023-04-26T00:45:12.035Z,4.80
2023-04-26T00:47:48.889Z,3.88
2023-04-26T00:50:21.668Z,5.82
2023-04-26T00:53:28.545Z,3.15
2023-04-26T00:58:56.738Z,3.15
2023-04-26T01:01:24.853Z,3.78
2023-04-26T01:03:52.371Z,3.58
2023-04-26T01:06:29.038Z,2.95
2023-04-26T01:09:22.566Z,3.53
2023-04-26T01:12:43.976Z,3.63
2023-04-26T01:15:25.429Z,6.28
2023-04-26T01:17:56.014Z,4.05
2023-04-26T01:20:33.309Z,5.90
2023-04-26T01:23:45.338Z,4.72
2023-04-26T01:29:32.597Z,4.90
2023-04-26T01:32:38.175Z,3.77
2023-04-26T01:35:24.267Z,3.42
2023-04-26T01:41:12.430Z,5.18
2023-04-26T01:44:01.871Z,4.47
2023-04-26T01:46:47.259Z,5.38
2023-04-26T01:49:35.983Z,6.78
2023-04-26T01:52:08.394Z,6.85
2023-04-26T02:00:27.496Z,6.55
2023-04-26T02:03:07.514Z,6.65
2023-04-26T02:05:41.107Z,5.28
2023-04-26T02:08:08.965Z,7.05
2023-04-26T02:10:41.975Z,5.32
2023-04-26T02:13:13.743Z,6.03
2023-04-26T02:15:47.191Z,5.25
2023-04-26T02:18:25.864Z,5.13
2023-04-26T02:20:59.054Z,5.40
2023-04-26T02:23:34.629Z,5.85
2023-04-26T02:28:52.194Z,4.80
2023-04-26T02:31:56.276Z,5.50
2023-04-26T02:34:31.996Z,4.85
2023-04-26T02:37:08.981Z,5.15
2023-04-26T02:39:40.225Z,5.97
2023-04-26T02:42:15.891Z,5.43
2023-04-26T02:47:29.224Z,7.13
2023-04-26T02:50:09.046Z,5.75
2023-04-26T02:52:57.183Z,5.72
2023-04-26T02:55:46.237Z,6.60
2023-04-26T02:58:43.470Z,7.05
2023-04-26T03:01:10.621Z,6.68
2023-04-26T03:03:38.299Z,5.57
2023-04-26T03:06:05.770Z,7.18
2023-04-26T03:08:35.073Z,5.40
2023-04-26T03:11:02.259Z,7.70
2023-04-26T03:13:34.815Z,6.55
2023-04-26T03:16:16.922Z,4.93
2023-04-26T03:18:44.069Z,7.57
2023-04-26T03:21:12.033Z,5.53
2023-04-26T03:26:05.955Z,5.78
2023-04-26T03:28:32.653Z,6.22
2023-04-26T03:30:59.560Z,7.60
2023-04-26T03:33:26.570Z,5.30
2023-04-26T03:35:56.311Z,5.13
2023-04-26T03:38:23.827Z,5.25
2023-04-26T03:40:50.523Z,6.85
2023-04-26T03:43:17.313Z,6.38
2023-04-26T03:45:47.397Z,8.30
2023-04-26T03:48:14.153Z,4.10
2023-04-26T03:50:41.217Z,5.65
2023-04-26T03:53:07.978Z,5.20
2023-04-26T03:55:34.734Z,6.53
2023-04-26T03:58:06.124Z,4.55
2023-04-26T04:00:32.922Z,5.47
2023-04-26T04:02:59.775Z,5.75
2023-04-26T04:05:27.235Z,5.65
2023-04-26T04:07:54.132Z,4.40
2023-04-26T04:10:23.241Z,4.68
2023-04-26T04:12:51.214Z,6.50
2023-04-26T04:17:49.646Z,8.75
2023-04-26T04:20:20.726Z,6.38
2023-04-26T04:22:48.514Z,5.82
2023-04-26T04:25:15.394Z,7.93
2023-04-26T04:27:43.915Z,8.00
2023-04-26T04:30:18.626Z,6.15
2023-04-26T04:32:47.047Z,6.45
2023-04-26T04:35:14.456Z,6.78
2023-04-26T04:37:44.759Z,8.23
2023-04-26T04:40:21.427Z,7.15
2023-04-26T04:42:48.649Z,6.50
2023-04-26T04:45:15.868Z,8.27
2023-04-26T04:47:49.998Z,8.82
2023-04-26T04:50:20.820Z,7.20
2023-04-26T04:53:10.944Z,7.88
2023-04-26T04:55:38.250Z,9.43
2023-04-26T04:58:05.300Z,7.43
2023-04-26T05:00:33.414Z,9.40
2023-04-26T05:03:00.848Z,8.88
2023-04-26T05:05:28.886Z,8.23
2023-04-26T05:07:56.131Z,8.52
2023-04-26T05:10:23.319Z,11.50
2023-04-26T05:12:52.780Z,9.98
2023-04-26T05:15:19.713Z,9.90
2023-04-26T05:17:46.713Z,12.73
2023-04-26T05:20:15.176Z,13.30
2023-04-26T05:22:44.953Z,12.63
2023-04-26T05:25:20.251Z,17.95
2023-04-26T05:27:49.119Z,19.10
2023-04-26T05:30:15.895Z,18.50
2023-04-26T05:32:42.967Z,19.05
2023-04-26T05:35:09.979Z,19.77
2023-04-26T05:37:36.989Z,22.27
2023-04-26T05:40:04.970Z,23.47
2023-04-26T05:42:31.827Z,19.92
2023-04-26T05:44:59.300Z,21.55
2023-04-26T05:47:26.395Z,14.15
2023-04-26T05:49:56.063Z,8.52
2023-04-26T05:52:23.073Z,9.85
2023-04-26T05:54:49.992Z,8.00
2023-04-26T05:57:18.093Z,11.43
2023-04-26T05:59:45.353Z,7.70
2023-04-26T06:02:15.324Z,8.52
2023-04-26T06:04:42.444Z,9.38
2023-04-26T06:07:09.866Z,7.60
2023-04-26T06:09:36.599Z,7.25
2023-04-26T06:12:06.398Z,7.93
2023-04-26T06:14:33.744Z,6.53
2023-04-26T06:17:01.153Z,6.47
2023-04-26T06:19:28.156Z,4.72
2023-04-26T06:22:05.077Z,5.17
2023-04-26T06:24:32.685Z,6.68
2023-04-26T06:26:59.494Z,4.95
2023-04-26T06:29:37.149Z,4.85
2023-04-26T06:34:30.817Z,3.07
2023-04-26T06:37:01.566Z,5.10
2023-04-26T06:39:30.336Z,5.05
2023-04-26T06:41:57.576Z,4.40
2023-04-26T06:44:27.808Z,3.15
2023-04-26T06:46:55.948Z,4.13
2023-04-26T06:49:33.346Z,4.40
2023-04-26T06:52:00.877Z,3.20
2023-04-26T06:54:29.581Z,3.33
2023-04-26T06:57:01.362Z,4.32
2023-04-26T06:59:31.559Z,4.53
2023-04-26T07:02:03.540Z,4.15
2023-04-26T07:04:35.384Z,4.88
2023-04-26T07:07:03.449Z,5.50
2023-04-26T07:09:30.938Z,4.30
2023-04-26T07:11:57.945Z,4.90
2023-04-26T07:14:25.815Z,3.95
2023-04-26T07:17:00.869Z,3.20
2023-04-26T07:19:44.418Z,2.97
2023-04-26T07:22:11.240Z,2.92
2023-04-26T07:25:12.660Z,3.00
2023-04-26T07:27:48.177Z,2.70
2023-04-26T07:30:15.249Z,3.42
2023-04-26T07:32:42.393Z,3.77
2023-04-26T07:35:16.583Z,4.50
2023-04-26T07:37:45.160Z,3.60
2023-04-26T07:40:14.073Z,3.35
2023-04-26T07:42:41.182Z,3.83
2023-04-26T07:45:09.251Z,3.58
2023-04-26T07:47:41.912Z,3.10
2023-04-26T07:50:15.288Z,3.33
2023-04-26T07:52:47.755Z,3.28
2023-04-26T07:55:16.436Z,3.90
2023-04-26T07:57:57.977Z,5.72
2023-04-26T08:00:27.979Z,6.15
2023-04-26T08:02:55.355Z,3.50
2023-04-26T08:05:22.827Z,2.53
2023-04-26T08:07:52.744Z,2.05
2023-04-26T08:10:19.572Z,2.40
2023-04-26T08:12:49.943Z,2.40
2023-04-26T08:18:30.829Z,2.70
2023-04-26T08:23:50.211Z,2.35
2023-04-26T08:26:16.955Z,3.38
2023-04-26T08:28:47.139Z,3.40
2023-04-26T08:31:23.132Z,3.53
2023-04-26T08:33:50.157Z,1.60
2023-04-26T08:36:17.151Z,2.70
2023-04-26T08:38:43.886Z,1.40
2023-04-26T08:41:17.002Z,2.63
2023-04-26T08:43:44.110Z,3.28
2023-04-26T08:46:19.624Z,2.00
2023-04-26T08:48:54.436Z,3.95
2023-04-26T08:51:22.661Z,3.03
2023-04-26T08:53:53.608Z,1.50
2023-04-26T08:56:23.480Z,3.30
2023-04-26T08:58:51.265Z,2.50
2023-04-26T09:01:19.203Z,2.67
2023-04-26T09:03:47.291Z,3.38
2023-04-26T09:06:15.378Z,2.05
2023-04-26T09:08:43.362Z,2.75
2023-04-26T09:11:10.220Z,1.50
2023-04-26T09:13:37.230Z,2.35
2023-04-26T09:16:05.128Z,2.33
2023-04-26T09:18:34.212Z,2.20
2023-04-26T09:21:07.708Z,1.33
2023-04-26T09:23:35.399Z,2.85
2023-04-26T09:28:49.070Z,1.63
2023-04-26T09:31:38.288Z,1.80
2023-04-26T09:34:05.579Z,3.67
2023-04-26T09:36:34.946Z,2.83
2023-04-26T09:39:04.065Z,0.98
2023-04-26T09:41:44.851Z,2.47
2023-04-26T09:44:23.277Z,4.35
2023-04-26T09:47:00.337Z,3.10
2023-04-26T09:49:29.942Z,2.65
2023-04-26T09:52:07.408Z,5.30
2023-04-26T09:55:35.266Z,1.80
2023-04-26T09:58:11.103Z,1.35
2023-04-26T10:00:42.466Z,1.38
2023-04-26T10:03:10.064Z,1.13
2023-04-26T10:08:09.070Z,1.88
2023-04-26T10:10:37.241Z,3.25
2023-04-26T10:13:06.719Z,0.95
2023-04-26T10:15:34.976Z,1.90
2023-04-26T10:18:05.705Z,1.40
2023-04-26T10:20:32.706Z,2.35
2023-04-26T10:23:06.465Z,0.88
2023-04-26T10:25:42.332Z,2.72
2023-04-26T10:28:12.293Z,1.50
2023-04-26T10:30:59.339Z,1.55
2023-04-26T10:33:29.504Z,1.35
2023-04-26T10:36:08.091Z,4.13
2023-04-26T10:38:37.496Z,1.02
2023-04-26T10:41:30.953Z,0.75
2023-04-26T10:44:00.391Z,2.25
2023-04-26T10:46:39.948Z,1.35
2023-04-26T10:49:17.896Z,1.33
2023-04-26T10:52:12.941Z,5.57
2023-04-26T10:55:00.302Z,3.08
2023-04-26T10:58:28.063Z,5.63
2023-04-26T11:01:09.823Z,3.22
2023-04-26T11:03:37.331Z,2.63
2023-04-26T11:08:37.155Z,0.95
2023-04-26T11:11:04.267Z,1.45
2023-04-26T11:13:31.928Z,1.15
2023-04-26T11:16:10.957Z,3.03
2023-04-26T11:18:43.036Z,2.70
2023-04-26T11:21:10.568Z,1.30
2023-04-26T11:23:37.684Z,0.80
2023-04-26T11:26:09.184Z,1.00
2023-04-26T11:28:38.284Z,6.15
2023-04-26T11:31:09.191Z,1.35
2023-04-26T11:33:36.178Z,0.88
2023-04-26T11:36:04.116Z,0.50
2023-04-26T11:38:31.185Z,1.15
2023-04-26T11:41:03.624Z,1.10
2023-04-26T11:43:40.510Z,0.75
2023-04-26T11:46:09.511Z,1.33
2023-04-26T11:48:37.663Z,0.98
2023-04-26T11:51:06.170Z,0.93
2023-04-26T11:53:43.234Z,1.55
2023-04-26T11:56:24.517Z,0.40
2023-04-26T11:59:18.704Z,0.75
2023-04-26T12:02:29.305Z,0.63
2023-04-26T12:06:13.392Z,0.82
2023-04-26T12:09:32.239Z,0.30
2023-04-26T12:11:52.771Z,1.25
2023-04-26T12:15:27.472Z,0.50
2023-04-26T12:19:09.598Z,1.77
2023-04-26T12:22:08.074Z,1.27
2023-04-26T12:25:14.097Z,4.93
2023-04-26T12:30:55.376Z,0.70
2023-04-26T12:34:25.053Z,0.63
2023-04-26T12:37:25.467Z,0.60
2023-04-26T12:46:50.136Z,0.55
2023-04-26T12:49:17.208Z,0.40
2023-04-26T12:52:20.609Z,0.68
2023-04-26T12:54:49.405Z,0.50
2023-04-26T12:57:16.318Z,0.65
2023-04-26T12:59:57.404Z,1.15
2023-04-26T13:02:25.328Z,1.20
2023-04-26T13:04:52.856Z,0.70
2023-04-26T13:07:20.627Z,0.52
2023-04-26T13:15:02.034Z,3.35
2023-04-26T13:17:28.841Z,1.77
2023-04-26T13:19:58.741Z,1.77
2023-04-26T13:22:32.069Z,0.82
2023-04-26T13:24:59.069Z,0.40
2023-04-26T13:27:31.352Z,1.67
2023-04-26T13:29:58.739Z,1.10
2023-04-26T13:32:25.849Z,1.02
2023-04-26T13:34:53.419Z,1.55
2023-04-26T13:37:21.379Z,2.03
2023-04-26T13:39:48.766Z,0.77
2023-04-26T13:42:24.836Z,1.10
2023-04-26T13:44:52.064Z,1.73
2023-04-26T13:47:19.217Z,2.30
2023-04-26T13:49:46.291Z,1.58
2023-04-26T13:52:13.095Z,1.08
2023-04-26T13:54:42.648Z,1.50
2023-04-26T13:57:09.429Z,2.08
2023-04-26T13:59:36.259Z,1.20
2023-04-26T14:02:03.852Z,1.23
2023-04-26T14:04:43.686Z,0.98
2023-04-26T14:07:20.318Z,1.88
2023-04-26T14:09:51.115Z,1.33
2023-04-26T14:12:48.033Z,1.48
2023-04-26T14:15:24.677Z,1.23
2023-04-26T14:17:58.004Z,1.50
2023-04-26T14:20:28.462Z,2.35
2023-04-26T14:23:26.758Z,1.90
2023-04-26T14:25:55.497Z,3.08
2023-04-26T14:28:32.186Z,1.75
2023-04-26T14:30:59.420Z,3.67
2023-04-26T14:33:38.631Z,1.50
2023-04-26T14:36:06.671Z,1.77
2023-04-26T14:38:37.595Z,1.58
2023-04-26T14:41:46.093Z,3.33
2023-04-26T14:44:35.527Z,2.42
2023-04-26T14:47:06.495Z,4.15
2023-04-26T14:52:31.996Z,1.38
2023-04-26T14:55:16.978Z,1.08
2023-04-26T14:58:08.163Z,1.92
2023-04-26T15:00:34.994Z,1.13
2023-04-26T15:03:03.106Z,1.77
2023-04-26T15:05:30.216Z,2.05
2023-04-26T15:08:00.723Z,1.92
2023-04-26T15:10:28.313Z,1.20
2023-04-26T15:12:58.537Z,1.38
2023-04-26T15:15:25.384Z,1.27
2023-04-26T15:17:53.049Z,1.53
2023-04-26T15:20:24.999Z,1.67
2023-04-26T15:22:51.760Z,2.08
2023-04-26T15:25:19.077Z,3.08
2023-04-26T15:27:47.030Z,3.15
2023-04-26T15:30:14.350Z,1.30
2023-04-26T15:32:50.311Z,2.47
2023-04-26T15:35:17.592Z,7.75
2023-04-26T15:37:44.891Z,11.15
2023-04-26T15:40:12.348Z,1.95
2023-04-26T15:42:39.370Z,1.10
2023-04-26T15:45:06.684Z,1.75
2023-04-26T15:47:35.700Z,1.77
2023-04-26T15:50:10.752Z,3.03
2023-04-26T15:52:39.416Z,3.38
2023-04-26T15:55:10.249Z,3.17
2023-04-26T15:57:38.019Z,1.55
2023-04-26T16:00:09.284Z,4.60
2023-04-26T16:02:37.553Z,1.52
2023-04-26T16:05:05.317Z,1.90
2023-04-26T16:07:32.117Z,0.90
2023-04-26T16:09:59.080Z,1.08
2023-04-26T16:12:25.940Z,3.40
2023-04-26T16:14:53.434Z,4.07
2023-04-26T16:17:20.432Z,0.82
2023-04-26T16:19:48.830Z,2.45
2023-04-26T16:25:24.834Z,2.13
2023-04-26T16:27:51.719Z,2.17
2023-04-26T16:30:19.252Z,0.40
2023-04-26T16:32:46.167Z,1.55
2023-04-26T16:35:14.738Z,1.33
2023-04-26T16:37:44.324Z,2.35
2023-04-26T16:40:11.741Z,1.58
2023-04-26T16:42:46.664Z,1.63
2023-04-26T16:45:16.548Z,3.95
2023-04-26T16:47:47.596Z,1.35
2023-04-26T16:50:14.891Z,2.05
2023-04-26T16:56:16.441Z,2.45
2023-04-26T16:58:52.262Z,2.28
2023-04-26T17:01:22.934Z,61.88
2023-04-26T17:03:56.389Z,59.83
2023-04-26T17:09:07.297Z,10.77
2023-04-26T17:11:47.194Z,5.07
2023-04-26T17:15:14.372Z,4.90
2023-04-26T17:18:11.343Z,5.00
2023-04-26T17:21:06.056Z,5.97
2023-04-26T17:23:40.365Z,6.22
2023-04-26T17:27:00.287Z,10.02
2023-04-26T17:29:27.432Z,9.10
2023-04-26T17:32:38.964Z,5.40
2023-04-26T17:35:19.328Z,6.60
2023-04-26T17:37:50.451Z,5.43
2023-04-26T17:40:36.482Z,4.88
2023-04-26T17:46:03.645Z,3.85
2023-04-26T17:52:02.037Z,47.45
2023-04-26T17:54:32.774Z,21.08
2023-04-26T17:57:03.527Z,11.40
2023-04-26T17:59:31.820Z,6.88
2023-04-26T18:01:59.818Z,4.75
2023-04-26T18:05:06.643Z,6.53
2023-04-26T18:07:43.874Z,5.47
2023-04-26T18:10:27.043Z,4.35
2023-04-26T18:13:26.717Z,4.38
2023-04-26T18:16:09.772Z,2.65
2023-04-26T18:19:23.520Z,4.35
2023-04-26T18:25:53.428Z,7.60
2023-04-26T18:28:59.350Z,8.95
2023-04-26T18:32:09.094Z,4.03
2023-04-26T18:35:21.731Z,3.55
2023-04-26T18:37:48.798Z,3.67
2023-04-26T18:40:58.257Z,4.60
2023-04-26T18:43:47.726Z,3.95
2023-04-26T18:46:14.845Z,4.32
2023-04-26T18:49:09.018Z,3.92
2023-04-26T18:51:52.107Z,3.90
2023-04-26T18:54:19.049Z,3.67
2023-04-26T18:57:16.328Z,3.43
2023-04-26T19:00:13.159Z,2.40
2023-04-26T19:05:43.009Z,6.43
2023-04-26T19:08:23.920Z,5.68
2023-04-26T19:11:05.252Z,3.42
2023-04-26T19:13:50.247Z,7.20
2023-04-26T19:16:21.681Z,2.92
2023-04-26T19:18:49.197Z,3.88
2023-04-26T19:21:16.533Z,3.10
2023-04-26T19:23:45.397Z,2.53
2023-04-26T19:26:13.640Z,3.13
2023-04-26T19:28:41.071Z,2.20
2023-04-26T19:31:08.306Z,2.47
2023-04-26T19:33:42.185Z,4.55
2023-04-26T19:36:10.697Z,2.97
2023-04-26T19:38:37.697Z,4.63
2023-04-26T19:41:04.450Z,3.23
2023-04-26T19:43:31.542Z,3.75
2023-04-26T19:45:58.658Z,5.80
2023-04-26T19:48:26.495Z,6.35
2023-04-26T19:50:53.246Z,4.93
2023-04-26T19:53:20.029Z,4.68
2023-04-26T19:55:46.776Z,5.00
2023-04-26T19:58:13.547Z,3.45
2023-04-26T20:00:40.709Z,4.18
2023-04-26T20:03:08.001Z,4.55
2023-04-26T20:05:35.659Z,4.70
2023-04-26T20:08:02.795Z,4.70
2023-04-26T20:10:34.361Z,4.97
2023-04-26T20:13:01.749Z,3.97
2023-04-26T20:15:31.004Z,4.00
2023-04-26T20:17:59.359Z,4.72
2023-04-26T20:20:26.231Z,4.63
2023-04-26T20:22:52.926Z,6.03
2023-04-26T20:25:20.242Z,4.22
2023-04-26T20:27:47.785Z,5.07
2023-04-26T20:30:15.438Z,4.05
2023-04-26T20:32:42.776Z,4.70
2023-04-26T20:35:09.862Z,4.05
2023-04-26T20:37:36.536Z,4.97
2023-04-26T20:40:03.938Z,4.32
2023-04-26T20:42:30.991Z,4.55
2023-04-26T20:44:59.823Z,5.67
2023-04-26T20:47:28.039Z,5.35
2023-04-26T20:49:55.084Z,4.90
2023-04-26T20:52:21.821Z,3.90
2023-04-26T20:54:48.584Z,3.67
2023-04-26T20:57:16.278Z,4.70
2023-04-26T20:59:43.058Z,4.38
2023-04-26T21:02:10.161Z,4.68
2023-04-26T21:04:39.101Z,4.25
2023-04-26T21:07:06.182Z,4.20
2023-04-26T21:09:32.931Z,5.88
2023-04-26T21:11:59.931Z,5.80
2023-04-26T21:14:26.896Z,4.30
2023-04-26T21:16:54.081Z,6.00
2023-04-26T21:19:21.228Z,5.78
2023-04-26T21:21:48.040Z,5.43
2023-04-26T21:24:14.879Z,7.00
2023-04-26T21:26:41.609Z,3.70
2023-04-26T21:29:08.931Z,5.30
2023-04-26T21:31:35.921Z,4.60
2023-04-26T21:34:02.901Z,6.05
2023-04-26T21:36:30.089Z,4.80
2023-04-26T21:39:09.979Z,4.07
2023-04-26T21:41:37.076Z,5.63
2023-04-26T21:44:04.455Z,4.82
2023-04-26T21:46:31.469Z,6.38
2023-04-26T21:48:58.406Z,5.85
2023-04-26T21:51:25.588Z,7.55
2023-04-26T21:53:52.348Z,5.30
2023-04-26T21:56:19.132Z,6.32
2023-04-26T21:58:46.352Z,5.72
2023-04-26T22:01:15.124Z,6.45
2023-04-26T22:03:42.213Z,7.40
2023-04-26T22:06:09.775Z,6.70
2023-04-26T22:08:36.849Z,6.05
2023-04-26T22:11:04.296Z,6.33
2023-04-26T22:13:32.467Z,6.00
2023-04-26T22:15:59.293Z,5.40
2023-04-26T22:18:26.557Z,3.58
2023-04-26T22:20:53.791Z,5.60
2023-04-26T22:23:20.585Z,5.00
2023-04-26T22:25:47.331Z,4.30
2023-04-26T22:28:14.065Z,3.35
2023-04-26T22:30:40.979Z,2.90
2023-04-26T22:33:07.874Z,2.03
2023-04-26T22:35:35.098Z,1.27
2023-04-26T22:38:02.058Z,2.20
2023-04-26T22:40:29.306Z,2.43
2023-04-26T22:42:56.123Z,2.55
2023-04-26T22:45:23.059Z,5.50
2023-04-26T22:47:49.986Z,2.33
2023-04-26T22:50:17.064Z,1.10
2023-04-26T22:52:43.879Z,1.67
2023-04-26T22:55:10.712Z,0.85
2023-04-26T22:57:37.859Z,1.30
2023-04-26T23:00:06.542Z,2.92
2023-04-26T23:02:33.339Z,2.75
2023-04-26T23:05:00.428Z,5.88
2023-04-26T23:07:32.496Z,4.65
2023-04-26T23:10:11.796Z,1.85
2023-04-26T23:12:39.451Z,2.03
2023-04-26T23:15:19.952Z,2.20
2023-04-26T23:17:54.149Z,2.30
2023-04-26T23:20:21.790Z,2.78
2023-04-26T23:22:49.427Z,1.60
2023-04-26T23:25:18.160Z,1.45
2023-04-26T23:27:47.015Z,3.10
2023-04-26T23:30:14.926Z,4.80
2023-04-26T23:32:42.793Z,4.05
2023-04-26T23:38:01.264Z,3.25
2023-04-26T23:43:14.604Z,3.42
2023-04-26T23:45:48.228Z,4.88
2023-04-26T23:48:21.930Z,5.80
2023-04-26T23:50:51.438Z,4.70
2023-04-26T23:53:27.016Z,6.57
2023-04-26T23:56:18.012Z,6.20
2023-04-26T23:58:45.952Z,3.47
